Ambler, Pennsylvania
Current Conditions -  °F | °C
As of 2:55 PM on Wednesday 17 Dec 2014 (Local Time) from KLOM Reporting Station
Overcast Overcast  
Wind Chill: 50°   Ceiling: 4200
Heat Index: 50°   Visibility: 10mi
Dew Point: 34°   Wind: 9mph
Humidity: 54%   Direction: 280°W
Pressure: 29.88"   Gusts: 21mph
Location:  40.16°N, 75.22°W
Report Text: KLOM 171955Z AUTO 28008G18KT 250V310 10SM OVC042 10/01 A2988 RMK AO1
Loading
Personal Weather Stations






























Interactive Weather Map New forecast layout! Learn more

10-Day Weather Forecast

Advertisements
Track Severe Weather on mobile